Time;durP1;ratioP1;P1;durP2;ratioP2;P2;SDS_P1;SDS_P2;PMS_P1;PMS_P2;Temp;Humidity;BMP_temperature;BMP_pressure;BME280_temperature;BME280_humidity;BME280_pressure;Samples;Min_cycle;Max_cycle;Signal;HPM_P1;HPM_P2
2024/01/05 00:01:39;;;;;;;1999.90;999.90;;;1.30;97.10;;;;;;5024374;28;20130;-75
2024/01/05 00:04:05;;;;;;;1999.90;999.90;;;1.20;97.10;;;;;;5027841;28;20079;-75
2024/01/05 00:06:30;;;;;;;1999.90;999.90;;;1.20;97.30;;;;;;5028436;28;20058;-74
2024/01/05 00:08:56;;;;;;;1999.90;999.90;;;1.20;97.30;;;;;;5027640;28;20044;-74
2024/01/05 00:11:22;;;;;;;1999.90;999.90;;;1.30;97.40;;;;;;5026353;28;20045;-73
2024/01/05 00:13:48;;;;;;;1999.90;999.90;;;1.40;97.80;;;;;;5024273;28;20709;-74
2024/01/05 00:16:21;;;;;;;1999.90;999.90;;;1.50;97.60;;;;;;5025357;28;20048;-76
2024/01/05 00:18:47;;;;;;;1999.90;999.90;;;1.50;97.60;;;;;;5019300;28;20752;-74
2024/01/05 00:21:23;;;;;;;1999.90;999.90;;;1.40;97.70;;;;;;5023839;28;20155;-74
2024/01/05 00:23:50;;;;;;;1999.90;999.90;;;1.40;97.90;;;;;;5023370;28;20040;-73
2024/01/05 00:26:16;;;;;;;1999.90;999.90;;;1.30;98.10;;;;;;5028587;28;20088;-74
2024/01/05 00:28:42;;;;;;;1999.90;999.90;;;1.40;98.40;;;;;;5027125;28;20400;-74
2024/01/05 00:31:15;;;;;;;1999.90;999.90;;;1.40;98.10;;;;;;5025667;28;20033;-74
2024/01/05 00:33:41;;;;;;;1999.90;999.90;;;1.30;98.10;;;;;;5025036;28;20082;-74
2024/01/05 00:36:08;;;;;;;1999.90;999.90;;;1.30;98.20;;;;;;5024214;28;20029;-73
2024/01/05 00:38:38;;;;;;;1999.90;999.90;;;1.30;98.30;;;;;;5026667;28;20033;-74
2024/01/05 00:41:04;;;;;;;1999.90;999.90;;;1.30;98.30;;;;;;5025029;28;20643;-74
2024/01/05 00:43:30;;;;;;;1999.90;999.90;;;1.30;98.20;;;;;;5026685;28;20041;-75
2024/01/05 00:45:56;;;;;;;1999.90;999.90;;;1.30;98.10;;;;;;5025697;28;20561;-74
2024/01/05 00:48:22;;;;;;;1999.90;999.90;;;1.30;98.10;;;;;;5024607;28;20038;-74
2024/01/05 00:50:48;;;;;;;1999.90;999.90;;;1.30;98.50;;;;;;5023824;28;20087;-74
2024/01/05 00:53:13;;;;;;;1999.90;999.90;;;1.30;98.20;;;;;;5027022;28;20040;-74
2024/01/05 00:55:39;;;;;;;1999.90;999.90;;;1.20;98.10;;;;;;5021973;28;20072;-74
2024/01/05 00:58:05;;;;;;;1999.90;999.90;;;1.20;98.10;;;;;;5028388;28;20480;-75
2024/01/05 01:00:33;;;;;;;1999.90;999.90;;;1.20;98.10;;;;;;5023384;28;20369;-74
2024/01/05 01:03:00;;;;;;;1999.90;999.90;;;1.20;98.00;;;;;;5025116;28;20392;-75
2024/01/05 01:05:26;;;;;;;1999.90;999.90;;;1.20;98.00;;;;;;5022976;28;20057;-74
2024/01/05 01:07:52;;;;;;;1999.90;999.90;;;1.20;98.00;;;;;;5028285;28;20037;-74
2024/01/05 01:10:17;;;;;;;1999.90;999.90;;;1.20;98.10;;;;;;5024384;28;20040;-75
2024/01/05 01:12:43;;;;;;;1999.90;999.90;;;1.30;98.10;;;;;;5022610;28;20708;-73
2024/01/05 01:15:09;;;;;;;1999.90;999.90;;;1.40;98.20;;;;;;5018702;28;20159;-74
2024/01/05 01:17:35;;;;;;;1999.90;999.90;;;1.60;98.50;;;;;;5019991;28;20049;-74
2024/01/05 01:20:01;;;;;;;1999.90;999.90;;;1.60;98.00;;;;;;5023519;28;20087;-75
2024/01/05 01:22:27;;;;;;;1999.90;999.90;;;1.60;97.90;;;;;;5024393;28;20061;-74
2024/01/05 01:24:52;;;;;;;1999.90;999.90;;;1.70;97.90;;;;;;5021821;28;20073;-74
2024/01/05 01:27:18;;;;;;;1999.90;999.90;;;1.70;97.70;;;;;;5025362;28;20037;-74
2024/01/05 01:29:43;;;;;;;1999.90;999.90;;;1.70;97.70;;;;;;5023483;28;20554;-74
2024/01/05 01:32:09;;;;;;;1999.90;999.90;;;1.70;97.50;;;;;;5027823;28;20088;-74
2024/01/05 01:34:39;;;;;;;1999.90;999.90;;;1.80;97.50;;;;;;5030154;28;20040;-75
2024/01/05 01:37:05;;;;;;;1999.90;999.90;;;1.80;97.40;;;;;;5033061;28;20112;-74
2024/01/05 01:39:31;;;;;;;1999.90;999.90;;;1.90;97.50;;;;;;5031900;28;20567;-75
2024/01/05 01:41:58;;;;;;;1999.90;999.90;;;2.00;97.40;;;;;;5032418;28;20060;-74
2024/01/05 01:44:23;;;;;;;1999.90;999.90;;;2.00;97.20;;;;;;5029734;28;20055;-74
2024/01/05 01:46:55;;;;;;;1999.90;999.90;;;2.10;97.00;;;;;;5025021;28;20636;-73
2024/01/05 01:49:21;;;;;;;1999.90;999.90;;;2.20;96.60;;;;;;5029470;28;20516;-74
2024/01/05 01:51:50;;;;;;;1999.90;999.90;;;2.30;96.20;;;;;;5027340;28;20483;-74
2024/01/05 01:54:16;;;;;;;1999.90;999.90;;;2.30;95.80;;;;;;5029093;28;20032;-74
2024/01/05 01:56:45;;;;;;;1999.90;999.90;;;2.40;95.60;;;;;;5027212;28;20124;-75
2024/01/05 01:59:12;;;;;;;1999.90;999.90;;;2.40;95.30;;;;;;5033086;28;20033;-74
2024/01/05 02:01:38;;;;;;;1999.90;999.90;;;2.50;95.10;;;;;;5026250;28;20121;-74
2024/01/05 02:04:04;;;;;;;1999.90;999.90;;;2.50;94.70;;;;;;5034393;28;20044;-74
2024/01/05 02:06:31;;;;;;;1999.90;999.90;;;2.60;94.50;;;;;;5023198;28;20128;-75
2024/01/05 02:08:56;;;;;;;1999.90;999.90;;;2.50;94.20;;;;;;5028288;28;20100;-74
2024/01/05 02:11:22;;;;;;;1999.90;999.90;;;2.50;94.00;;;;;;5028624;28;20041;-73
2024/01/05 02:13:48;;;;;;;1999.90;999.90;;;2.50;93.80;;;;;;5027358;28;20056;-73
2024/01/05 02:16:14;;;;;;;1999.90;999.90;;;2.30;93.70;;;;;;5024207;28;20038;-73
2024/01/05 02:18:40;;;;;;;1999.90;999.90;;;2.30;93.70;;;;;;5024528;28;20033;-73
2024/01/05 02:21:08;;;;;;;1999.90;999.90;;;1.80;94.10;;;;;;5024997;28;20487;-73
2024/01/05 02:23:34;;;;;;;1999.90;999.90;;;1.80;94.60;;;;;;5031641;28;20557;-73
2024/01/05 02:26:02;;;;;;;1999.90;999.90;;;1.70;94.80;;;;;;5027923;28;20041;-74
2024/01/05 02:28:28;;;;;;;1999.90;999.90;;;1.80;95.00;;;;;;5020841;28;20025;-74
2024/01/05 02:30:55;;;;;;;1999.90;999.90;;;1.70;95.00;;;;;;5025291;28;20036;-73
2024/01/05 02:33:21;;;;;;;1999.90;999.90;;;1.90;95.10;;;;;;5025325;28;20044;-74
2024/01/05 02:35:46;;;;;;;1999.90;999.90;;;1.80;95.00;;;;;;5009928;28;20038;-73
2024/01/05 02:38:12;;;;;;;1999.90;999.90;;;2.00;95.20;;;;;;5028276;28;20441;-74
2024/01/05 02:40:37;;;;;;;1999.90;999.90;;;2.00;95.10;;;;;;5028370;28;20770;-73
2024/01/05 02:43:03;;;;;;;1999.90;999.90;;;2.00;94.90;;;;;;5030294;28;20030;-74
2024/01/05 02:45:29;;;;;;;1999.90;999.90;;;2.00;94.80;;;;;;5027895;28;20038;-74
2024/01/05 02:47:55;;;;;;;1999.90;999.90;;;2.20;94.90;;;;;;5025324;28;20113;-73
2024/01/05 02:50:21;;;;;;;1999.90;999.90;;;2.10;94.60;;;;;;5025173;28;20845;-74
2024/01/05 02:52:47;;;;;;;1999.90;999.90;;;2.00;94.50;;;;;;5028897;28;20017;-74
2024/01/05 02:55:13;;;;;;;1999.90;999.90;;;1.90;94.50;;;;;;5025588;28;20073;-73
2024/01/05 02:57:39;;;;;;;1999.90;999.90;;;2.00;94.70;;;;;;5030532;28;20056;-74
2024/01/05 03:00:05;;;;;;;1999.90;999.90;;;1.90;94.60;;;;;;5028510;28;20128;-73
2024/01/05 03:02:31;;;;;;;1999.90;999.90;;;2.00;94.70;;;;;;5021869;28;20041;-74
2024/01/05 03:04:57;;;;;;;1999.90;999.90;;;1.90;94.60;;;;;;5022378;28;20092;-74
2024/01/05 03:07:23;;;;;;;1999.90;999.90;;;2.00;94.80;;;;;;5025872;28;20056;-73
2024/01/05 03:09:50;;;;;;;1999.90;999.90;;;1.90;94.70;;;;;;5027456;28;20030;-73
2024/01/05 03:12:16;;;;;;;1999.90;999.90;;;1.70;94.70;;;;;;5028764;28;20551;-74
2024/01/05 03:14:42;;;;;;;1999.90;999.90;;;1.70;94.80;;;;;;5027190;28;20029;-74
2024/01/05 03:17:08;;;;;;;1999.90;999.90;;;1.80;94.90;;;;;;5023794;28;20025;-73
2024/01/05 03:19:33;;;;;;;1999.90;999.90;;;1.80;94.80;;;;;;5023679;28;20033;-73
2024/01/05 03:21:59;;;;;;;1999.90;999.90;;;1.80;94.90;;;;;;5024377;28;20519;-74
2024/01/05 03:24:24;;;;;;;1999.90;999.90;;;1.80;94.80;;;;;;5025517;28;20756;-74
2024/01/05 03:26:50;;;;;;;1999.90;999.90;;;1.80;94.80;;;;;;5023536;28;20029;-74
2024/01/05 03:29:16;;;;;;;1999.90;999.90;;;1.90;94.60;;;;;;5025050;28;20029;-73
2024/01/05 03:31:46;;;;;;;1999.90;999.90;;;2.00;94.60;;;;;;5029361;28;20487;-73
2024/01/05 03:34:12;;;;;;;1999.90;999.90;;;2.00;94.50;;;;;;5031162;28;20128;-73
2024/01/05 03:36:38;;;;;;;1999.90;999.90;;;2.00;94.60;;;;;;5026651;28;20134;-73
2024/01/05 03:39:06;;;;;;;1999.90;999.90;;;2.10;94.70;;;;;;5026435;28;20433;-73
2024/01/05 03:41:32;;;;;;;1999.90;999.90;;;2.10;94.50;;;;;;5028350;28;20381;-74
2024/01/05 03:43:58;;;;;;;1999.90;999.90;;;2.00;94.50;;;;;;5023170;28;20746;-74
2024/01/05 03:46:24;;;;;;;1999.90;999.90;;;2.00;94.40;;;;;;5024922;28;20087;-75
2024/01/05 03:48:49;;;;;;;1999.90;999.90;;;2.00;94.20;;;;;;5029509;28;20033;-74
2024/01/05 03:51:15;;;;;;;1999.90;999.90;;;2.10;94.30;;;;;;5026081;28;20033;-73
2024/01/05 03:53:41;;;;;;;1999.90;999.90;;;2.00;94.30;;;;;;5025275;28;20091;-74
2024/01/05 03:56:08;;;;;;;1999.90;999.90;;;2.00;94.10;;;;;;5028412;28;20038;-74
2024/01/05 03:58:34;;;;;;;1999.90;999.90;;;1.90;94.00;;;;;;5024574;28;20090;-74
2024/01/05 04:01:03;;;;;;;1999.90;999.90;;;1.90;94.10;;;;;;5020846;28;20033;-73
2024/01/05 04:03:29;;;;;;;1999.90;999.90;;;1.90;94.10;;;;;;5056943;28;20033;-74
2024/01/05 04:05:55;;;;;;;1999.90;999.90;;;2.00;94.10;;;;;;5026635;28;20111;-73
2024/01/05 04:08:21;;;;;;;1999.90;999.90;;;2.00;94.20;;;;;;5030335;28;20550;-74
2024/01/05 04:10:47;;;;;;;1999.90;999.90;;;2.00;94.10;;;;;;5022309;28;20025;-74
2024/01/05 04:13:13;;;;;;;1999.90;999.90;;;2.00;94.10;;;;;;5025087;28;20755;-73
2024/01/05 04:15:39;;;;;;;1999.90;999.90;;;2.10;94.00;;;;;;5023386;28;20506;-74
2024/01/05 04:18:05;;;;;;;1999.90;999.90;;;2.10;94.00;;;;;;5024859;28;20041;-74
2024/01/05 04:20:34;;;;;;;1999.90;999.90;;;2.10;93.90;;;;;;5024648;28;20391;-74
2024/01/05 04:23:00;;;;;;;1999.90;999.90;;;2.00;93.80;;;;;;5025861;28;20033;-73
2024/01/05 04:25:26;;;;;;;1999.90;999.90;;;2.00;93.80;;;;;;5022872;28;20087;-74
2024/01/05 04:27:52;;;;;;;1999.90;999.90;;;2.00;94.00;;;;;;5027227;28;20045;-74
2024/01/05 04:30:20;;;;;;;1999.90;999.90;;;2.10;93.80;;;;;;5026650;28;20072;-73
2024/01/05 04:32:46;;;;;;;1999.90;999.90;;;2.20;93.90;;;;;;5026999;28;20037;-74
2024/01/05 04:35:12;;;;;;;1999.90;999.90;;;2.20;93.70;;;;;;5029887;28;20032;-74
2024/01/05 04:37:38;;;;;;;1999.90;999.90;;;2.20;93.60;;;;;;5022310;28;20060;-73
2024/01/05 04:40:05;;;;;;;1999.90;999.90;;;2.30;93.60;;;;;;5022472;28;20037;-74
2024/01/05 04:42:31;;;;;;;1999.90;999.90;;;2.20;93.60;;;;;;5026950;28;20125;-74
2024/01/05 04:44:57;;;;;;;1999.90;999.90;;;2.20;93.50;;;;;;5029438;28;20125;-74
2024/01/05 04:47:23;;;;;;;1999.90;999.90;;;2.10;93.20;;;;;;5024719;28;20045;-74
2024/01/05 04:49:48;;;;;;;1999.90;999.90;;;2.20;93.30;;;;;;5022800;28;20064;-74
2024/01/05 04:52:14;;;;;;;1999.90;999.90;;;2.30;93.40;;;;;;5027403;28;20851;-73
2024/01/05 04:54:40;;;;;;;1999.90;999.90;;;2.40;93.40;;;;;;5026573;28;20403;-74
2024/01/05 04:57:06;;;;;;;1999.90;999.90;;;2.30;93.20;;;;;;5030971;28;20423;-73
2024/01/05 04:59:32;;;;;;;1999.90;999.90;;;2.30;93.20;;;;;;5024458;28;20022;-74
2024/01/05 05:01:59;;;;;;;1999.90;999.90;;;2.30;93.60;;;;;;5028017;28;20091;-74
2024/01/05 05:04:24;;;;;;;1999.90;999.90;;;2.30;93.40;;;;;;5022813;28;20044;-74
2024/01/05 05:06:50;;;;;;;1999.90;999.90;;;2.30;93.10;;;;;;5025608;28;20668;-73
2024/01/05 05:09:16;;;;;;;1999.90;999.90;;;2.20;93.00;;;;;;5027711;28;20056;-73
2024/01/05 05:11:41;;;;;;;1999.90;999.90;;;2.20;92.90;;;;;;5026134;28;20034;-74
2024/01/05 05:14:10;;;;;;;1999.90;999.90;;;2.20;92.90;;;;;;5026767;28;20036;-73
2024/01/05 05:16:39;;;;;;;1999.90;999.90;;;2.30;92.80;;;;;;5030317;28;20605;-73
2024/01/05 05:19:05;;;;;;;1999.90;999.90;;;2.40;92.40;;;;;;5027351;28;20546;-73
2024/01/05 05:21:31;;;;;;;1999.90;999.90;;;2.40;92.40;;;;;;5030906;28;20033;-73
2024/01/05 05:23:57;;;;;;;1999.90;999.90;;;2.40;92.20;;;;;;5030090;28;20384;-74
2024/01/05 05:26:23;;;;;;;1999.90;999.90;;;2.40;92.10;;;;;;5029630;28;20043;-73
2024/01/05 05:28:48;;;;;;;1999.90;999.90;;;2.40;91.90;;;;;;5027337;28;20033;-74
2024/01/05 05:31:14;;;;;;;1999.90;999.90;;;2.40;92.10;;;;;;5018331;28;20061;-74
2024/01/05 05:33:39;;;;;;;1999.90;999.90;;;2.40;92.10;;;;;;5028646;28;20057;-74
2024/01/05 05:36:05;;;;;;;1999.90;999.90;;;2.40;92.00;;;;;;5027862;28;20040;-75
2024/01/05 05:38:31;;;;;;;1999.90;999.90;;;2.40;91.90;;;;;;5030803;28;20030;-74
2024/01/05 05:40:57;;;;;;;1999.90;999.90;;;2.30;91.70;;;;;;5031210;28;20100;-74
2024/01/05 05:43:23;;;;;;;1999.90;999.90;;;2.30;91.60;;;;;;5030383;28;20045;-73
2024/01/05 05:45:49;;;;;;;1999.90;999.90;;;2.40;91.70;;;;;;5028314;28;20041;-73
2024/01/05 05:48:15;;;;;;;1999.90;999.90;;;2.40;91.60;;;;;;5029899;28;20072;-73
2024/01/05 05:50:41;;;;;;;1999.90;999.90;;;2.50;91.60;;;;;;5029472;28;20448;-73
2024/01/05 05:53:06;;;;;;;1999.90;999.90;;;2.50;91.40;;;;;;5031911;28;20672;-74
2024/01/05 05:55:32;;;;;;;1999.90;999.90;;;2.50;91.40;;;;;;5029556;28;20060;-74
2024/01/05 05:57:58;;;;;;;1999.90;999.90;;;2.50;91.20;;;;;;5029376;28;20033;-73
2024/01/05 06:00:25;;;;;;;1999.90;999.90;;;2.60;91.50;;;;;;5027241;28;20780;-73
2024/01/05 06:02:50;;;;;;;1999.90;999.90;;;2.60;91.20;;;;;;5029035;28;20116;-74
2024/01/05 06:05:16;;;;;;;1999.90;999.90;;;2.50;91.00;;;;;;5029632;28;20136;-73
2024/01/05 06:07:41;;;;;;;1999.90;999.90;;;2.50;90.90;;;;;;5028697;28;20056;-73
2024/01/05 06:10:10;;;;;;;1999.90;999.90;;;2.60;91.10;;;;;;5027151;28;20057;-73
2024/01/05 06:12:35;;;;;;;1999.90;999.90;;;2.60;91.10;;;;;;5030013;28;20511;-74
2024/01/05 06:15:03;;;;;;;1999.90;999.90;;;2.60;91.10;;;;;;5027464;28;20052;-74
2024/01/05 06:17:28;;;;;;;1999.90;999.90;;;2.70;90.90;;;;;;5027220;28;20033;-75
2024/01/05 06:19:54;;;;;;;1999.90;999.90;;;2.70;90.80;;;;;;5028742;28;20032;-74
2024/01/05 06:22:20;;;;;;;1999.90;999.90;;;2.80;90.60;;;;;;5061104;28;20037;-74
2024/01/05 06:24:46;;;;;;;1999.90;999.90;;;2.80;90.50;;;;;;5025588;28;20491;-73
2024/01/05 06:27:12;;;;;;;1999.90;999.90;;;2.80;90.50;;;;;;5032886;28;20577;-74
2024/01/05 06:29:38;;;;;;;1999.90;999.90;;;2.80;90.40;;;;;;5026805;28;20380;-75
2024/01/05 06:32:04;;;;;;;1999.90;999.90;;;2.80;90.20;;;;;;5028635;28;20044;-73
2024/01/05 06:34:30;;;;;;;1999.90;999.90;;;2.80;90.20;;;;;;5024847;28;20117;-73
2024/01/05 06:36:55;;;;;;;1999.90;999.90;;;2.90;90.30;;;;;;5024447;28;20132;-74
2024/01/05 06:39:21;;;;;;;1999.90;999.90;;;2.90;90.60;;;;;;5028286;28;20037;-73
2024/01/05 06:41:46;;;;;;;1999.90;999.90;;;2.90;90.40;;;;;;5028473;28;20529;-74
2024/01/05 06:44:12;;;;;;;1999.90;999.90;;;2.90;90.00;;;;;;5025728;28;20511;-74
2024/01/05 06:46:38;;;;;;;1999.90;999.90;;;2.80;90.00;;;;;;5031007;28;20164;-73
2024/01/05 06:49:03;;;;;;;1999.90;999.90;;;2.80;89.50;;;;;;5028648;28;20041;-73
2024/01/05 06:51:35;;;;;;;1999.90;999.90;;;2.80;90.30;;;;;;5026953;28;20079;-74
2024/01/05 06:54:01;;;;;;;1999.90;999.90;;;2.90;90.40;;;;;;5026473;28;20112;-74
2024/01/05 06:56:31;;;;;;;1999.90;999.90;;;3.00;90.30;;;;;;5031051;28;20458;-73
2024/01/05 06:58:58;;;;;;;1999.90;999.90;;;3.00;90.30;;;;;;5028979;28;20037;-74
2024/01/05 07:01:23;;;;;;;1999.90;999.90;;;3.00;90.30;;;;;;5025671;28;20056;-73
2024/01/05 07:03:49;;;;;;;1999.90;999.90;;;3.00;90.60;;;;;;5029361;28;20025;-74
2024/01/05 07:06:15;;;;;;;1999.90;999.90;;;3.10;90.20;;;;;;5026145;28;20503;-73
2024/01/05 07:08:41;;;;;;;1999.90;999.90;;;3.10;90.30;;;;;;5030013;28;20038;-74
2024/01/05 07:11:07;;;;;;;1999.90;999.90;;;3.10;90.10;;;;;;5029308;28;20098;-74
2024/01/05 07:13:32;;;;;;;1999.90;999.90;;;3.20;89.70;;;;;;5024207;28;20299;-75
2024/01/05 07:15:58;;;;;;;1999.90;999.90;;;3.20;89.50;;;;;;5027811;28;20065;-74
2024/01/05 07:18:24;;;;;;;1999.90;999.90;;;3.10;89.20;;;;;;5022880;28;20041;-74
2024/01/05 07:20:49;;;;;;;1999.90;999.90;;;3.10;89.40;;;;;;5025876;28;21134;-74
2024/01/05 07:23:15;;;;;;;1999.90;999.90;;;3.10;90.10;;;;;;5024811;28;20060;-73
2024/01/05 07:25:41;;;;;;;1999.90;999.90;;;3.10;90.00;;;;;;5014175;28;20048;-73
2024/01/05 07:28:06;;;;;;;1999.90;999.90;;;3.10;90.00;;;;;;5027009;28;20433;-74
2024/01/05 07:30:32;;;;;;;1999.90;999.90;;;3.10;90.20;;;;;;5027910;28;20065;-74
2024/01/05 07:32:57;;;;;;;1999.90;999.90;;;3.10;90.20;;;;;;5026970;28;20022;-74
2024/01/05 07:35:23;;;;;;;1999.90;999.90;;;3.10;90.20;;;;;;5030423;28;20604;-74
2024/01/05 07:37:49;;;;;;;1999.90;999.90;;;3.20;90.30;;;;;;5029313;28;20055;-74
2024/01/05 07:40:15;;;;;;;1999.90;999.90;;;3.10;90.40;;;;;;5025779;28;20059;-74
2024/01/05 07:42:40;;;;;;;1999.90;999.90;;;3.20;90.40;;;;;;5027350;28;20053;-73
2024/01/05 07:45:06;;;;;;;1999.90;999.90;;;3.20;90.40;;;;;;5029215;28;20049;-73
2024/01/05 07:47:32;;;;;;;1999.90;999.90;;;3.20;90.30;;;;;;5027747;28;20446;-74
2024/01/05 07:49:58;;;;;;;1999.90;999.90;;;3.10;90.20;;;;;;5025966;28;20029;-74
2024/01/05 07:52:23;;;;;;;1999.90;999.90;;;3.20;90.20;;;;;;5025598;28;20056;-74
2024/01/05 07:54:49;;;;;;;1999.90;999.90;;;3.10;90.20;;;;;;5026687;28;20957;-73
2024/01/05 07:57:15;;;;;;;1999.90;999.90;;;3.20;90.30;;;;;;5032210;28;20042;-73
2024/01/05 07:59:41;;;;;;;1999.90;999.90;;;3.30;90.10;;;;;;5027855;28;20037;-75
2024/01/05 08:02:07;;;;;;;1999.90;999.90;;;3.40;89.50;;;;;;5026656;28;20037;-74
2024/01/05 08:04:35;;;;;;;1999.90;999.90;;;3.50;89.60;;;;;;5028314;28;20046;-74
2024/01/05 08:07:01;;;;;;;1999.90;999.90;;;3.50;89.30;;;;;;5028446;28;20084;-73
2024/01/05 08:09:27;;;;;;;1999.90;999.90;;;3.60;89.00;;;;;;5029565;28;20131;-74
2024/01/05 08:11:53;;;;;;;1999.90;999.90;;;3.60;88.20;;;;;;5028149;28;20038;-73
2024/01/05 08:14:19;;;;;;;1999.90;999.90;;;3.60;88.20;;;;;;5027253;28;20036;-74
2024/01/05 08:16:44;;;;;;;1999.90;999.90;;;3.70;87.90;;;;;;5028004;28;20032;-74
2024/01/05 08:19:10;;;;;;;1999.90;999.90;;;3.70;87.90;;;;;;5057974;28;20034;-74
2024/01/05 08:21:36;;;;;;;1999.90;999.90;;;3.60;88.00;;;;;;5025354;28;20048;-74
2024/01/05 08:24:02;;;;;;;1999.90;999.90;;;3.50;87.10;;;;;;5027839;28;20029;-74
2024/01/05 08:26:27;;;;;;;1999.90;999.90;;;3.60;87.80;;;;;;5025451;28;20427;-72
2024/01/05 08:28:53;;;;;;;1999.90;999.90;;;3.60;87.70;;;;;;5027459;28;20045;-74
2024/01/05 08:31:19;;;;;;;1999.90;999.90;;;3.70;87.60;;;;;;5028366;28;20496;-75
2024/01/05 08:33:45;;;;;;;1999.90;999.90;;;3.70;87.60;;;;;;5026691;28;20029;-75
2024/01/05 08:36:10;;;;;;;1999.90;999.90;;;3.70;87.80;;;;;;5024757;28;20148;-74
2024/01/05 08:38:36;;;;;;;1999.90;999.90;;;3.70;87.80;;;;;;5026316;28;20064;-76
2024/01/05 08:41:02;;;;;;;1999.90;999.90;;;3.70;88.10;;;;;;5026594;28;20041;-75
2024/01/05 08:43:27;;;;;;;1999.90;999.90;;;3.70;88.00;;;;;;5028147;28;20060;-75
2024/01/05 08:45:53;;;;;;;1999.90;999.90;;;3.80;88.40;;;;;;5025904;28;20037;-74
2024/01/05 08:48:19;;;;;;;1999.90;999.90;;;3.90;88.40;;;;;;5027315;28;20040;-76
2024/01/05 08:50:45;;;;;;;1999.90;999.90;;;4.00;87.80;;;;;;5031874;28;20435;-75
2024/01/05 08:53:12;;;;;;;1999.90;999.90;;;4.10;86.90;;;;;;5010314;28;20056;-74
2024/01/05 08:55:37;;;;;;;1999.90;999.90;;;4.20;86.60;;;;;;5028015;28;20029;-74
2024/01/05 08:58:04;;;;;;;1999.90;999.90;;;4.20;86.10;;;;;;5031051;28;20040;-75
2024/01/05 09:00:30;;;;;;;1999.90;999.90;;;4.30;86.50;;;;;;5030772;28;20037;-75
2024/01/05 09:02:55;;;;;;;1999.90;999.90;;;4.30;85.50;;;;;;5063984;28;20519;-72
2024/01/05 09:05:21;;;;;;;1999.90;999.90;;;4.30;85.40;;;;;;5031585;28;20049;-76
2024/01/05 09:07:48;;;;;;;1999.90;999.90;;;4.40;85.40;;;;;;5029119;28;20029;-77
2024/01/05 09:10:14;;;;;;;1999.90;999.90;;;4.40;84.80;;;;;;5027630;28;20038;-76
2024/01/05 09:12:40;;;;;;;1999.90;999.90;;;4.50;84.20;;;;;;5027820;28;20035;-74
2024/01/05 09:15:07;;;;;;;1999.90;999.90;;;4.50;83.80;;;;;;5030559;28;20076;-75
2024/01/05 09:17:33;;;;;;;1999.90;999.90;;;4.60;84.70;;;;;;5031436;28;20052;-75
2024/01/05 09:19:59;;;;;;;1999.90;999.90;;;4.60;83.50;;;;;;5031261;28;20391;-75
2024/01/05 09:22:25;;;;;;;1999.90;999.90;;;4.70;83.90;;;;;;5028252;28;20026;-80
2024/01/05 09:24:53;;;;;;;1999.90;999.90;;;4.80;83.40;;;;;;5029496;28;20037;-80
2024/01/05 09:27:18;;;;;;;1999.90;999.90;;;4.90;82.60;;;;;;5030865;28;20617;-78
2024/01/05 09:29:44;;;;;;;1999.90;999.90;;;4.90;82.20;;;;;;5031979;28;20160;-78
2024/01/05 09:32:10;;;;;;;1999.90;999.90;;;4.90;81.80;;;;;;5029947;28;20044;-84
2024/01/05 09:34:36;;;;;;;1999.90;999.90;;;5.00;81.50;;;;;;5031860;28;20132;-84
2024/01/05 09:37:01;;;;;;;1999.90;999.90;;;5.10;81.70;;;;;;5027455;28;20060;-85
2024/01/05 09:39:28;;;;;;;1999.90;999.90;;;5.10;81.10;;;;;;5031243;28;20048;-84
2024/01/05 09:41:53;;;;;;;1999.90;999.90;;;5.30;82.10;;;;;;5028942;28;20029;-86
2024/01/05 09:44:21;;;;;;;1999.90;999.90;;;5.50;82.30;;;;;;5029931;28;20098;-83
2024/01/05 09:46:46;;;;;;;1999.90;999.90;;;5.70;80.80;;;;;;5031875;28;20037;-81
2024/01/05 09:49:17;;;;;;;1999.90;999.90;;;5.90;80.50;;;;;;5028632;28;20041;-84
2024/01/05 09:51:43;;;;;;;;;;;5.90;79.40;;;;;;5031199;28;20120;-86
2024/01/05 09:54:08;;;;;;;1999.90;999.90;;;5.90;79.20;;;;;;5032441;28;20008;-84
2024/01/05 09:56:35;;;;;;;1999.90;999.90;;;6.00;79.50;;;;;;5033599;28;20042;-87
2024/01/05 09:59:02;;;;;;;1999.90;999.90;;;6.30;79.60;;;;;;5027851;28;20103;-85
2024/01/05 10:01:30;;;;;;;1999.90;999.90;;;6.20;78.60;;;;;;5031677;28;20060;-86
2024/01/05 10:03:59;;;;;;;1999.90;999.90;;;6.20;78.40;;;;;;5030301;28;20041;-86
2024/01/05 10:06:25;;;;;;;1999.90;999.90;;;6.30;79.50;;;;;;5032454;28;20108;-86
2024/01/05 10:08:58;;;;;;;1999.90;999.90;;;6.10;78.20;;;;;;5031666;28;20025;-86
2024/01/05 10:11:31;;;;;;;1999.90;999.90;;;6.10;78.30;;;;;;5029272;28;20040;-86
2024/01/05 10:14:03;;;;;;;1999.90;999.90;;;6.20;78.90;;;;;;5025458;28;20056;-87
2024/01/05 10:16:39;;;;;;;1999.90;999.90;;;6.10;79.20;;;;;;5029996;28;20124;-88
2024/01/05 10:19:18;;;;;;;1999.90;999.90;;;6.10;79.50;;;;;;5026773;28;20077;-87
2024/01/05 10:21:46;;;;;;;1999.90;999.90;;;6.00;79.50;;;;;;5031018;28;20045;-86
2024/01/05 10:24:24;;;;;;;1999.90;999.90;;;6.10;79.50;;;;;;5024022;28;20514;-85
2024/01/05 10:27:19;;;;;;;1999.90;999.90;;;6.20;79.90;;;;;;5024952;28;20037;-84
2024/01/05 10:29:55;;;;;;;1999.90;999.90;;;6.20;79.50;;;;;;5030227;28;20049;-87
2024/01/05 10:32:21;;;;;;;1999.90;999.90;;;6.20;78.80;;;;;;5028947;28;20053;-87
2024/01/05 10:34:49;;;;;;;1999.90;999.90;;;6.10;78.90;;;;;;5032262;28;20033;-85
2024/01/05 10:37:21;;;;;;;1999.90;999.90;;;6.00;79.30;;;;;;5030170;28;20029;-87
2024/01/05 10:39:51;;;;;;;1999.90;999.90;;;6.00;79.30;;;;;;5026923;28;20539;-83
2024/01/05 10:42:29;;;;;;;1999.90;999.90;;;6.10;79.90;;;;;;5033269;28;20530;-89
2024/01/05 10:44:57;;;;;;;1999.90;999.90;;;6.10;80.10;;;;;;5028747;28;20373;-82
2024/01/05 10:47:25;;;;;;;1999.90;999.90;;;6.00;79.50;;;;;;5027860;28;20026;-83
2024/01/05 10:49:54;;;;;;;1999.90;999.90;;;6.10;80.60;;;;;;5029244;28;20430;-82
2024/01/05 10:52:27;;;;;;;1999.90;999.90;;;6.00;80.20;;;;;;5024013;28;20075;-80
2024/01/05 10:54:54;;;;;;;1999.90;999.90;;;6.00;80.00;;;;;;5025278;28;20551;-82
2024/01/05 10:57:21;;;;;;;1999.90;999.90;;;5.90;79.70;;;;;;5030140;28;20038;-83
2024/01/05 10:59:48;;;;;;;1999.90;999.90;;;5.90;79.20;;;;;;5028061;28;20120;-84
2024/01/05 11:02:39;;;;;;;1999.90;999.90;;;5.90;78.90;;;;;;5028808;28;20041;-85
2024/01/05 11:05:05;;;;;;;1999.90;999.90;;;6.00;79.00;;;;;;5026811;28;21430;-82
2024/01/05 11:07:33;;;;;;;1999.90;999.90;;;6.00;79.20;;;;;;5030367;28;20040;-85
2024/01/05 11:10:30;;;;;;;1999.90;999.90;;;6.30;80.30;;;;;;5025955;28;20116;-81
2024/01/05 11:13:11;;;;;;;1999.90;999.90;;;6.40;79.60;;;;;;5027577;28;20336;-89
2024/01/05 11:15:53;;;;;;;1999.90;999.90;;;6.60;80.10;;;;;;5026613;28;20523;-86
2024/01/05 11:18:45;;;;;;;1999.90;999.90;;;6.40;78.40;;;;;;5025177;28;20045;-75
2024/01/05 11:21:12;;;;;;;1999.90;999.90;;;6.60;78.50;;;;;;5027926;28;20029;-77
2024/01/05 11:23:39;;;;;;;1999.90;999.90;;;6.80;78.20;;;;;;5031853;28;20041;-76
2024/01/05 11:26:04;;;;;;;1999.90;999.90;;;6.80;78.30;;;;;;5028781;28;20514;-76
2024/01/05 11:28:38;;;;;;;1999.90;999.90;;;6.80;78.00;;;;;;5030939;28;20037;-75
2024/01/05 11:31:05;;;;;;;1999.90;999.90;;;7.00;78.80;;;;;;5031613;28;20041;-74
2024/01/05 11:33:47;;;;;;;1999.90;999.90;;;7.00;78.10;;;;;;5028400;28;20087;-76
2024/01/05 11:36:33;;;;;;;1999.90;999.90;;;6.90;76.90;;;;;;5035891;28;20411;-75
2024/01/05 11:38:59;;;;;;;1999.90;999.90;;;6.90;77.60;;;;;;5026431;28;20022;-76
2024/01/05 11:41:26;;;;;;;1999.90;999.90;;;6.70;75.90;;;;;;5028658;28;20583;-76
2024/01/05 11:43:51;;;;;;;1999.90;999.90;;;6.70;75.80;;;;;;5025468;28;20041;-75
2024/01/05 11:46:17;;;;;;;1999.90;999.90;;;6.70;76.00;;;;;;5026139;28;20064;-78
2024/01/05 11:48:47;;;;;;;1999.90;999.90;;;6.70;75.50;;;;;;5024475;28;20297;-76
2024/01/05 11:51:12;;;;;;;1999.90;999.90;;;6.80;74.60;;;;;;5033640;28;20037;-76
2024/01/05 11:53:38;;;;;;;1999.90;999.90;;;6.80;74.30;;;;;;5039563;28;20053;-77
2024/01/05 11:56:17;;;;;;;1999.90;999.90;;;6.80;73.30;;;;;;5025942;28;20581;-77
2024/01/05 11:58:43;;;;;;;1999.90;999.90;;;6.80;73.40;;;;;;5023411;28;20044;-78
2024/01/05 12:01:13;;;;;;;1999.90;999.90;;;6.70;73.20;;;;;;5027393;28;20029;-74
2024/01/05 12:03:39;;;;;;;1999.90;999.90;;;6.70;74.50;;;;;;5026793;28;20025;-77
2024/01/05 12:06:09;;;;;;;1999.90;999.90;;;6.70;75.10;;;;;;5027517;28;20523;-76
2024/01/05 12:08:35;;;;;;;1999.90;999.90;;;6.70;74.70;;;;;;5025988;28;20092;-77